Time;durP1;ratioP1;P1;durP2;ratioP2;P2;SDS_P1;SDS_P2;PMS_P1;PMS_P2;Temp;Humidity;BMP_temperature;BMP_pressure;BME280_temperature;BME280_humidity;BME280_pressure;Samples;Min_cycle;Max_cycle;Signal;HPM_P1;HPM_P2
2023/08/18 00:01:21;;;;;;;5.38;1.90;;;;;;;;;;5033706;28;20063;-79
2023/08/18 00:03:47;;;;;;;3.85;1.75;;;;;;;;;;4978174;28;20163;-78
2023/08/18 00:06:13;;;;;;;7.20;2.30;;;;;;;;;;5014222;28;20041;-79
2023/08/18 00:08:39;;;;;;;3.75;1.95;;;;;;;;;;5033639;28;20038;-79
2023/08/18 00:11:05;;;;;;;4.68;2.10;;;;;;;;;;5021766;28;20037;-79
2023/08/18 00:13:31;;;;;;;5.70;2.40;;;;;;;;;;5015838;28;20137;-79
2023/08/18 00:15:57;;;;;;;4.90;1.90;;;;;;;;;;5033337;28;20049;-79
2023/08/18 00:18:23;;;;;;;3.50;1.95;;;;;;;;;;4999545;28;20366;-79
2023/08/18 00:20:53;;;;;;;5.97;2.10;;;;;;;;;;5015516;28;20567;-78
2023/08/18 00:23:19;;;;;;;4.15;2.13;;;;;;;;;;5032933;28;20041;-78
2023/08/18 00:25:45;;;;;;;3.92;2.17;;;;;;;;;;5033072;28;20045;-78
2023/08/18 00:28:11;;;;;;;4.50;2.00;;;;;;;;;;5015239;28;20045;-78
2023/08/18 00:30:38;;;;;;;5.35;2.05;;;;;;;;;;5015587;28;20033;-79
2023/08/18 00:33:04;;;;;;;3.67;2.10;;;;;;;;;;5013602;28;20124;-78
2023/08/18 00:35:30;;;;;;;3.85;2.38;;;;;;;;;;5033056;28;20125;-77
2023/08/18 00:37:56;;;;;;;3.30;2.00;;;;;;;;;;5033311;28;20045;-77
2023/08/18 00:40:25;;;;;;;6.22;2.30;;;;;;;;;;5015504;28;20379;-78
2023/08/18 00:42:52;;;;;;;4.45;2.65;;;;;;;;;;5014689;28;20056;-78
2023/08/18 00:45:18;;;;;;;4.80;2.40;;;;;;;;;;5033164;28;20083;-78
2023/08/18 00:47:44;;;;;;;4.65;2.63;;;;;;;;;;5014915;28;20573;-77
2023/08/18 00:50:11;;;;;;;4.75;2.35;;;;;;;;;;5015446;28;20128;-78
2023/08/18 00:52:39;;;;;;;3.47;2.47;;;;;;;;;;5033173;28;20046;-78
2023/08/18 00:55:06;;;;;;;4.93;2.22;;;;;;;;;;5031281;28;20053;-78
2023/08/18 00:57:32;;;;;;;4.93;2.30;;;;;;;;;;5029935;28;20505;-78
2023/08/18 00:59:58;;;;;;;5.18;2.50;;;;;;;;;;5032934;28;20119;-78
2023/08/18 01:02:25;;;;;;;5.95;2.50;;;;;;;;;;5014835;28;20136;-78
2023/08/18 01:04:52;;;;;;;5.95;2.30;;;;;;;;;;5014490;28;20347;-79
2023/08/18 01:07:18;;;;;;;4.85;2.40;;;;;;;;;;5013690;28;20041;-76
2023/08/18 01:09:45;;;;;;;3.92;2.53;;;;;;;;;;5030588;28;20063;-77
2023/08/18 01:12:16;;;;;;;4.25;2.40;;;;;;;;;;5031926;28;20073;-77
2023/08/18 01:14:50;;;;;;;5.25;2.50;;;;;;;;;;5014659;28;20118;-77
2023/08/18 01:17:20;;;;;;;4.20;2.50;;;;;;;;;;5016912;28;20042;-78
2023/08/18 01:19:47;;;;;;;4.07;2.63;;;;;;;;;;5014350;28;20083;-78
2023/08/18 01:22:14;;;;;;;4.43;2.60;;;;;;;;;;5014628;28;20080;-78
2023/08/18 01:24:41;;;;;;;3.78;2.50;;;;;;;;;;5014142;28;20128;-78
2023/08/18 01:27:07;;;;;;;6.63;2.60;;;;;;;;;;5032135;28;20041;-78
2023/08/18 01:29:33;;;;;;;6.43;2.95;;;;;;;;;;5026871;28;20176;-78
2023/08/18 01:32:01;;;;;;;6.82;2.88;;;;;;;;;;4998007;28;20405;-78
2023/08/18 01:34:28;;;;;;;4.75;2.60;;;;;;;;;;5032175;28;20409;-78
2023/08/18 01:36:55;;;;;;;5.07;2.70;;;;;;;;;;5014421;28;20061;-78
2023/08/18 01:39:22;;;;;;;5.25;2.88;;;;;;;;;;5014245;28;20124;-78
2023/08/18 01:41:49;;;;;;;5.22;2.97;;;;;;;;;;5029678;28;20057;-78
2023/08/18 01:44:16;;;;;;;5.57;3.00;;;;;;;;;;5012749;28;20038;-77
2023/08/18 01:46:42;;;;;;;5.22;2.92;;;;;;;;;;5014074;28;20069;-78
2023/08/18 01:49:08;;;;;;;3.95;2.60;;;;;;;;;;5014563;28;20041;-78
2023/08/18 01:51:35;;;;;;;4.60;2.72;;;;;;;;;;5032065;28;20521;-78
2023/08/18 01:54:01;;;;;;;5.38;2.78;;;;;;;;;;5033178;28;20053;-78
2023/08/18 01:56:27;;;;;;;6.40;3.00;;;;;;;;;;5036008;28;20034;-78
2023/08/18 01:58:53;;;;;;;5.35;2.85;;;;;;;;;;5035502;28;20049;-78
2023/08/18 02:01:19;;;;;;;5.25;2.90;;;;;;;;;;5036221;28;20398;-78
2023/08/18 02:03:45;;;;;;;4.60;2.60;;;;;;;;;;5035127;28;20111;-78
2023/08/18 02:06:11;;;;;;;5.65;3.03;;;;;;;;;;5036100;28;20405;-78
2023/08/18 02:08:37;;;;;;;6.22;3.05;;;;;;;;;;5004526;28;20404;-78
2023/08/18 02:11:04;;;;;;;4.72;3.10;;;;;;;;;;5035873;28;20559;-79
2023/08/18 02:13:33;;;;;;;6.20;2.92;;;;;;;;;;5035434;28;20359;-79
2023/08/18 02:15:59;;;;;;;5.60;3.42;;;;;;;;;;5017782;28;20042;-79
2023/08/18 02:18:26;;;;;;;6.72;3.28;;;;;;;;;;5017196;28;20095;-79
2023/08/18 02:20:58;;;;;;;6.95;3.35;;;;;;;;;;5018455;28;20045;-79
2023/08/18 02:23:24;;;;;;;6.20;3.10;;;;;;;;;;5017594;28;20076;-79
2023/08/18 02:25:51;;;;;;;5.22;3.15;;;;;;;;;;5035845;28;20045;-78
2023/08/18 02:28:19;;;;;;;4.80;3.17;;;;;;;;;;4997694;28;20099;-79
2023/08/18 02:30:47;;;;;;;6.68;3.45;;;;;;;;;;5018192;28;20041;-79
2023/08/18 02:33:14;;;;;;;6.78;3.40;;;;;;;;;;5035588;28;20050;-79
2023/08/18 02:35:42;;;;;;;6.68;3.40;;;;;;;;;;5017606;28;20405;-79
2023/08/18 02:38:09;;;;;;;7.68;3.70;;;;;;;;;;5035011;28;20045;-78
2023/08/18 02:40:35;;;;;;;5.50;3.67;;;;;;;;;;5035551;28;20060;-78
2023/08/18 02:43:02;;;;;;;6.40;3.78;;;;;;;;;;5035112;28;20124;-79
2023/08/18 02:45:28;;;;;;;5.38;3.20;;;;;;;;;;5034983;28;20045;-79
2023/08/18 02:47:54;;;;;;;6.22;3.53;;;;;;;;;;5000688;28;20051;-78
2023/08/18 02:50:20;;;;;;;6.78;3.65;;;;;;;;;;5035320;28;20148;-79
2023/08/18 02:52:46;;;;;;;5.70;3.80;;;;;;;;;;5034864;28;20057;-78
2023/08/18 02:55:12;;;;;;;5.68;3.63;;;;;;;;;;5035274;28;20041;-79
2023/08/18 02:57:38;;;;;;;5.82;3.10;;;;;;;;;;5016597;28;20042;-80
2023/08/18 03:00:07;;;;;;;8.23;3.40;;;;;;;;;;5001281;28;20429;-78
2023/08/18 03:02:33;;;;;;;6.18;3.65;;;;;;;;;;5016318;28;20580;-78
2023/08/18 03:04:59;;;;;;;6.22;3.60;;;;;;;;;;5033844;28;20453;-79
2023/08/18 03:07:25;;;;;;;6.47;4.15;;;;;;;;;;5017196;28;20526;-79
2023/08/18 03:09:51;;;;;;;6.45;4.03;;;;;;;;;;5035449;28;20038;-79
2023/08/18 03:12:17;;;;;;;7.22;4.25;;;;;;;;;;5017208;28;20047;-79
2023/08/18 03:14:43;;;;;;;6.00;3.70;;;;;;;;;;5000634;28;20500;-79
2023/08/18 03:17:09;;;;;;;7.68;3.70;;;;;;;;;;5032426;28;20084;-79
2023/08/18 03:19:35;;;;;;;5.15;3.80;;;;;;;;;;5032654;28;20081;-79
2023/08/18 03:22:01;;;;;;;6.80;3.70;;;;;;;;;;5034689;28;20046;-79
2023/08/18 03:24:27;;;;;;;7.55;4.25;;;;;;;;;;5034423;28;20046;-79
2023/08/18 03:26:53;;;;;;;6.47;3.90;;;;;;;;;;5016548;28;20096;-78
2023/08/18 03:29:19;;;;;;;7.32;4.00;;;;;;;;;;5016282;28;20081;-78
2023/08/18 03:31:45;;;;;;;7.55;4.05;;;;;;;;;;5032020;28;20124;-79
2023/08/18 03:34:11;;;;;;;6.43;4.53;;;;;;;;;;5016354;28;20053;-79
2023/08/18 03:36:37;;;;;;;6.20;4.10;;;;;;;;;;4999361;28;20038;-79
2023/08/18 03:39:05;;;;;;;8.23;4.50;;;;;;;;;;4999952;28;20055;-79
2023/08/18 03:41:31;;;;;;;7.40;4.40;;;;;;;;;;5016318;28;20050;-79
2023/08/18 03:43:58;;;;;;;7.63;4.35;;;;;;;;;;4999695;28;20081;-79
2023/08/18 03:46:28;;;;;;;9.02;4.65;;;;;;;;;;5034177;28;20128;-79
2023/08/18 03:48:54;;;;;;;9.68;4.55;;;;;;;;;;5016023;28;20053;-79
2023/08/18 03:51:21;;;;;;;8.00;4.97;;;;;;;;;;5016410;28;20049;-79
2023/08/18 03:53:47;;;;;;;10.20;4.60;;;;;;;;;;5033442;28;20037;-79
2023/08/18 03:56:13;;;;;;;7.95;5.05;;;;;;;;;;5014760;28;20535;-79
2023/08/18 03:58:39;;;;;;;8.25;4.95;;;;;;;;;;5033404;28;20194;-78
2023/08/18 04:01:07;;;;;;;9.52;4.70;;;;;;;;;;5000213;28;20401;-79
2023/08/18 04:03:37;;;;;;;8.60;4.65;;;;;;;;;;5015448;28;20057;-79
2023/08/18 04:06:03;;;;;;;9.13;4.95;;;;;;;;;;5033200;28;20456;-79
2023/08/18 04:08:33;;;;;;;8.15;4.68;;;;;;;;;;5014713;28;20077;-79
2023/08/18 04:10:59;;;;;;;8.75;4.90;;;;;;;;;;5033538;28;20371;-78
2023/08/18 04:13:26;;;;;;;9.45;4.63;;;;;;;;;;5033386;28;20512;-78
2023/08/18 04:15:52;;;;;;;8.35;5.03;;;;;;;;;;4999376;28;20053;-78
2023/08/18 04:18:18;;;;;;;8.05;4.55;;;;;;;;;;5015331;28;20049;-79
2023/08/18 04:20:44;;;;;;;7.72;4.50;;;;;;;;;;5015633;28;20049;-79
2023/08/18 04:23:13;;;;;;;7.72;4.63;;;;;;;;;;5019020;28;20037;-78
2023/08/18 04:25:41;;;;;;;7.35;4.63;;;;;;;;;;5015583;28;20449;-78
2023/08/18 04:28:07;;;;;;;7.38;4.65;;;;;;;;;;5032903;28;20144;-79
2023/08/18 04:30:34;;;;;;;6.28;4.65;;;;;;;;;;5015436;28;20044;-79
2023/08/18 04:33:00;;;;;;;9.25;4.70;;;;;;;;;;5032732;28;20050;-79
2023/08/18 04:35:26;;;;;;;9.45;4.78;;;;;;;;;;5032487;28;20084;-79
2023/08/18 04:37:52;;;;;;;10.32;5.07;;;;;;;;;;5013624;28;20453;-79
2023/08/18 04:40:18;;;;;;;7.50;4.57;;;;;;;;;;5015339;28;20073;-79
2023/08/18 04:42:44;;;;;;;7.20;4.32;;;;;;;;;;5032852;28;20132;-79
2023/08/18 04:45:10;;;;;;;9.50;4.70;;;;;;;;;;5015490;28;20077;-79
2023/08/18 04:47:36;;;;;;;9.27;4.50;;;;;;;;;;5015450;28;20091;-78
2023/08/18 04:50:04;;;;;;;7.35;4.53;;;;;;;;;;5033185;28;20132;-78
2023/08/18 04:52:31;;;;;;;10.68;5.28;;;;;;;;;;5015372;28;20397;-78
2023/08/18 04:54:57;;;;;;;8.93;4.85;;;;;;;;;;5015006;28;20076;-79
2023/08/18 04:57:23;;;;;;;9.68;4.78;;;;;;;;;;5015097;28;20049;-79
2023/08/18 04:59:49;;;;;;;8.68;4.70;;;;;;;;;;5015180;28;20045;-79
2023/08/18 05:02:15;;;;;;;7.85;4.70;;;;;;;;;;5032472;28;20065;-78
2023/08/18 05:04:41;;;;;;;7.30;4.35;;;;;;;;;;5025129;28;20057;-79
2023/08/18 05:07:07;;;;;;;8.73;4.60;;;;;;;;;;5014907;28;20128;-79
2023/08/18 05:09:34;;;;;;;8.43;4.53;;;;;;;;;;5014881;28;20049;-78
2023/08/18 05:12:01;;;;;;;10.43;5.25;;;;;;;;;;5014937;28;20045;-79
2023/08/18 05:14:27;;;;;;;9.68;4.60;;;;;;;;;;5013986;28;20049;-78
2023/08/18 05:16:53;;;;;;;7.15;4.60;;;;;;;;;;5014483;28;20450;-78
2023/08/18 05:19:20;;;;;;;8.40;4.60;;;;;;;;;;5032099;28;20051;-78
2023/08/18 05:21:46;;;;;;;8.85;3.80;;;;;;;;;;5032367;28;20049;-78
2023/08/18 05:24:12;;;;;;;8.63;4.55;;;;;;;;;;5031808;28;20129;-79
2023/08/18 05:26:38;;;;;;;7.75;4.35;;;;;;;;;;5032507;28;20041;-79
2023/08/18 05:29:04;;;;;;;10.63;4.68;;;;;;;;;;5013355;28;20061;-78
2023/08/18 05:31:30;;;;;;;9.40;4.53;;;;;;;;;;5014746;28;20434;-79
2023/08/18 05:33:57;;;;;;;7.45;4.53;;;;;;;;;;5013741;28;20049;-78
2023/08/18 05:36:24;;;;;;;9.05;4.95;;;;;;;;;;5031954;28;20394;-78
2023/08/18 05:38:50;;;;;;;7.47;4.20;;;;;;;;;;5029726;28;20049;-78
2023/08/18 05:41:16;;;;;;;9.95;4.25;;;;;;;;;;5029106;28;20045;-78
2023/08/18 05:43:42;;;;;;;7.45;4.13;;;;;;;;;;5031622;28;20056;-78
2023/08/18 05:46:09;;;;;;;9.02;4.30;;;;;;;;;;5030215;28;20047;-79
2023/08/18 05:48:35;;;;;;;10.60;4.53;;;;;;;;;;5031288;28;20067;-78
2023/08/18 05:51:01;;;;;;;12.98;4.72;;;;;;;;;;5031405;28;20076;-78
2023/08/18 05:53:27;;;;;;;8.85;4.50;;;;;;;;;;5031638;28;20042;-78
2023/08/18 05:55:53;;;;;;;9.77;4.82;;;;;;;;;;5032281;28;20049;-78
2023/08/18 05:58:19;;;;;;;8.15;4.00;;;;;;;;;;5031914;28;20063;-78
2023/08/18 06:00:47;;;;;;;7.53;4.50;;;;;;;;;;5027653;28;20367;-78
2023/08/18 06:03:13;;;;;;;7.85;4.50;;;;;;;;;;5031577;28;20514;-78
2023/08/18 06:05:43;;;;;;;8.85;4.28;;;;;;;;;;5032370;28;20052;-78
2023/08/18 06:08:09;;;;;;;10.02;4.95;;;;;;;;;;5013577;28;20498;-78
2023/08/18 06:10:35;;;;;;;11.82;4.90;;;;;;;;;;5032591;28;20086;-78
2023/08/18 06:13:01;;;;;;;8.25;4.35;;;;;;;;;;5014226;28;20053;-78
2023/08/18 06:15:27;;;;;;;11.93;4.40;;;;;;;;;;5028972;28;20076;-79
2023/08/18 06:17:53;;;;;;;8.02;4.80;;;;;;;;;;5030517;28;20055;-78
2023/08/18 06:20:19;;;;;;;9.95;5.38;;;;;;;;;;5013141;28;20128;-78
2023/08/18 06:22:45;;;;;;;7.85;4.40;;;;;;;;;;5013860;28;20046;-78
2023/08/18 06:25:12;;;;;;;10.60;5.10;;;;;;;;;;5031829;28;20074;-78
2023/08/18 06:27:38;;;;;;;8.05;4.72;;;;;;;;;;5012001;28;20046;-78
2023/08/18 06:30:04;;;;;;;10.35;5.07;;;;;;;;;;5012146;28;20117;-78
2023/08/18 06:32:30;;;;;;;8.95;4.70;;;;;;;;;;5012249;28;20064;-78
2023/08/18 06:34:57;;;;;;;10.60;5.18;;;;;;;;;;5017333;28;20038;-78
2023/08/18 06:37:23;;;;;;;8.05;4.72;;;;;;;;;;5013874;28;20049;-78
2023/08/18 06:39:49;;;;;;;11.43;4.85;;;;;;;;;;5032362;28;20041;-78
2023/08/18 06:42:15;;;;;;;11.25;4.78;;;;;;;;;;5017464;28;20041;-78
2023/08/18 06:44:41;;;;;;;8.70;4.68;;;;;;;;;;5016347;28;20053;-79
2023/08/18 06:47:07;;;;;;;8.80;5.05;;;;;;;;;;5034369;28;20084;-78
2023/08/18 06:49:33;;;;;;;9.55;5.50;;;;;;;;;;5017354;28;20075;-79
2023/08/18 06:51:59;;;;;;;10.85;5.53;;;;;;;;;;5016711;28;20068;-79
2023/08/18 06:54:25;;;;;;;10.95;5.90;;;;;;;;;;5035497;28;20047;-79
2023/08/18 06:56:51;;;;;;;10.65;5.45;;;;;;;;;;5034938;28;20061;-78
2023/08/18 06:59:18;;;;;;;14.10;6.05;;;;;;;;;;5034780;28;20069;-78
2023/08/18 07:01:44;;;;;;;10.88;5.50;;;;;;;;;;5016942;28;20056;-78
2023/08/18 07:04:10;;;;;;;10.10;5.18;;;;;;;;;;5016889;28;20079;-79
2023/08/18 07:06:36;;;;;;;10.65;5.25;;;;;;;;;;5034171;28;20146;-79
2023/08/18 07:09:06;;;;;;;13.80;6.03;;;;;;;;;;5032441;28;20046;-79
2023/08/18 07:11:32;;;;;;;9.80;5.57;;;;;;;;;;5025588;28;20049;-78
2023/08/18 07:13:58;;;;;;;13.68;6.60;;;;;;;;;;5035522;28;20045;-78
2023/08/18 07:16:25;;;;;;;8.57;5.60;;;;;;;;;;5016805;28;20155;-78
2023/08/18 07:18:51;;;;;;;12.43;6.10;;;;;;;;;;5016827;28;20086;-78
2023/08/18 07:21:17;;;;;;;10.85;6.25;;;;;;;;;;5034717;28;20056;-78
2023/08/18 07:23:43;;;;;;;12.05;6.53;;;;;;;;;;5016360;28;20099;-78
2023/08/18 07:26:09;;;;;;;13.05;6.10;;;;;;;;;;5034433;28;20057;-79
2023/08/18 07:28:35;;;;;;;11.38;6.00;;;;;;;;;;5034174;28;20071;-78
2023/08/18 07:31:02;;;;;;;11.13;6.43;;;;;;;;;;5034248;28;20069;-78
2023/08/18 07:33:28;;;;;;;10.25;6.20;;;;;;;;;;5034131;28;20077;-78
2023/08/18 07:35:54;;;;;;;14.75;6.75;;;;;;;;;;5034757;28;20486;-79
2023/08/18 07:38:20;;;;;;;13.27;8.00;;;;;;;;;;5032727;28;20099;-78
2023/08/18 07:40:46;;;;;;;12.27;6.80;;;;;;;;;;5034369;28;20112;-78
2023/08/18 07:43:12;;;;;;;12.55;7.10;;;;;;;;;;5016307;28;20064;-78
2023/08/18 07:45:38;;;;;;;12.57;8.13;;;;;;;;;;5016638;28;20053;-79
2023/08/18 07:48:05;;;;;;;12.52;8.05;;;;;;;;;;5034288;28;20053;-78
2023/08/18 07:50:32;;;;;;;15.38;7.80;;;;;;;;;;5034385;28;20179;-78
2023/08/18 07:52:58;;;;;;;14.38;7.40;;;;;;;;;;5016555;28;20399;-79
2023/08/18 07:55:24;;;;;;;18.05;8.95;;;;;;;;;;5035281;28;20085;-79
2023/08/18 07:57:50;;;;;;;12.95;8.50;;;;;;;;;;5017009;28;20049;-79
2023/08/18 08:00:18;;;;;;;12.68;8.43;;;;;;;;;;5037438;28;20489;-79
2023/08/18 08:02:47;;;;;;;15.52;9.05;;;;;;;;;;5037457;28;20103;-79
2023/08/18 08:05:13;;;;;;;15.60;8.85;;;;;;;;;;5022055;28;20045;-79
2023/08/18 08:07:40;;;;;;;15.68;8.48;;;;;;;;;;5000675;28;20133;-79
2023/08/18 08:10:06;;;;;;;15.02;8.10;;;;;;;;;;4999085;28;20129;-79
2023/08/18 08:12:34;;;;;;;15.90;8.00;;;;;;;;;;5016605;28;20447;-78
2023/08/18 08:15:00;;;;;;;12.45;7.13;;;;;;;;;;4999193;28;20041;-78
2023/08/18 08:17:26;;;;;;;14.63;7.25;;;;;;;;;;5016494;28;20046;-78
2023/08/18 08:19:52;;;;;;;18.17;8.00;;;;;;;;;;5016082;28;20041;-78
2023/08/18 08:22:18;;;;;;;15.25;7.60;;;;;;;;;;5015824;28;20049;-79
2023/08/18 08:24:44;;;;;;;14.60;7.10;;;;;;;;;;5016523;28;20184;-79
2023/08/18 08:27:11;;;;;;;13.82;6.97;;;;;;;;;;4999699;28;20057;-79
2023/08/18 08:29:37;;;;;;;12.75;6.38;;;;;;;;;;5018071;28;20137;-79
2023/08/18 08:32:03;;;;;;;14.55;7.07;;;;;;;;;;5014591;28;20089;-79
2023/08/18 08:34:29;;;;;;;10.85;6.03;;;;;;;;;;4996040;28;20069;-79
2023/08/18 08:36:55;;;;;;;12.20;6.18;;;;;;;;;;4996180;28;20057;-79
2023/08/18 08:39:21;;;;;;;14.65;6.63;;;;;;;;;;5014561;28;20049;-79
2023/08/18 08:41:47;;;;;;;13.00;6.38;;;;;;;;;;4999594;28;20057;-79
2023/08/18 08:44:13;;;;;;;13.80;6.30;;;;;;;;;;5031624;28;20045;-79
2023/08/18 08:46:40;;;;;;;13.75;6.72;;;;;;;;;;5018542;28;20343;-79
2023/08/18 08:49:07;;;;;;;13.18;6.30;;;;;;;;;;4997622;28;20410;-79
2023/08/18 08:51:37;;;;;;;11.02;5.60;;;;;;;;;;5017299;28;20038;-79
2023/08/18 08:54:07;;;;;;;10.10;5.13;;;;;;;;;;5039053;28;20037;-79
2023/08/18 08:56:33;;;;;;;11.23;5.57;;;;;;;;;;5034000;28;20368;-79
2023/08/18 08:58:59;;;;;;;7.80;5.85;;;;;;;;;;5027434;28;20132;-80
2023/08/18 09:01:26;;;;;;;12.55;5.32;;;;;;;;;;5019420;28;20494;-79
2023/08/18 09:03:52;;;;;;;12.60;5.47;;;;;;;;;;5049440;28;20088;-79
2023/08/18 09:06:18;;;;;;;13.15;5.50;;;;;;;;;;5014248;28;20180;-79
2023/08/18 09:08:44;;;;;;;12.30;5.93;;;;;;;;;;5031482;28;20501;-78
2023/08/18 09:11:10;;;;;;;11.50;6.28;;;;;;;;;;5013208;28;20045;-78
2023/08/18 09:13:36;;;;;;;9.57;5.70;;;;;;;;;;5028931;28;20045;-79
2023/08/18 09:16:09;;;;;;;11.80;6.05;;;;;;;;;;5033621;28;20042;-79
2023/08/18 09:18:35;;;;;;;9.88;5.43;;;;;;;;;;5017060;28;20494;-78
2023/08/18 09:21:06;;;;;;;10.45;5.50;;;;;;;;;;5034265;28;20481;-77
2023/08/18 09:23:32;;;;;;;8.82;4.80;;;;;;;;;;5032469;28;20049;-77
2023/08/18 09:25:58;;;;;;;9.20;4.80;;;;;;;;;;5027590;28;20047;-77
2023/08/18 09:28:25;;;;;;;9.63;4.72;;;;;;;;;;4995315;28;20080;-78
2023/08/18 09:30:52;;;;;;;10.73;5.13;;;;;;;;;;5000041;28;20045;-78
2023/08/18 09:33:18;;;;;;;8.95;5.15;;;;;;;;;;5032371;28;20490;-79
2023/08/18 09:35:44;;;;;;;9.57;5.10;;;;;;;;;;5031363;28;20446;-78
2023/08/18 09:38:13;;;;;;;10.13;5.25;;;;;;;;;;5014494;28;20045;-78
2023/08/18 09:40:39;;;;;;;8.65;4.38;;;;;;;;;;5033225;28;20140;-78
2023/08/18 09:43:06;;;;;;;13.15;4.65;;;;;;;;;;5032748;28;20132;-79
2023/08/18 09:45:32;;;;;;;8.70;4.63;;;;;;;;;;5031866;28;20041;-78
2023/08/18 09:48:02;;;;;;;8.25;4.55;;;;;;;;;;5031222;28;20050;-79
2023/08/18 09:50:31;;;;;;;8.38;4.30;;;;;;;;;;5013679;28;20050;-78
2023/08/18 09:52:58;;;;;;;9.57;4.75;;;;;;;;;;4998195;28;20042;-78
2023/08/18 09:55:34;;;;;;;9.10;4.75;;;;;;;;;;5032755;28;20095;-77
2023/08/18 09:58:18;;;;;;;9.63;4.72;;;;;;;;;;5025471;28;20447;-76
2023/08/18 10:00:46;;;;;;;10.30;4.93;;;;;;;;;;5012953;28;20118;-76
2023/08/18 10:03:16;;;;;;;8.75;5.55;;;;;;;;;;5012678;28;20057;-76
2023/08/18 10:05:42;;;;;;;7.78;5.05;;;;;;;;;;5032051;28;20433;-77
2023/08/18 10:08:08;;;;;;;9.25;5.32;;;;;;;;;;5031627;28;20125;-76
2023/08/18 10:10:35;;;;;;;13.35;6.30;;;;;;;;;;5014344;28;20041;-77
2023/08/18 10:13:01;;;;;;;10.80;5.18;;;;;;;;;;5013255;28;20446;-76
2023/08/18 10:15:28;;;;;;;9.70;5.88;;;;;;;;;;4999285;28;20045;-77
2023/08/18 10:17:54;;;;;;;12.15;5.68;;;;;;;;;;5036582;28;20119;-77
2023/08/18 10:20:20;;;;;;;11.13;5.93;;;;;;;;;;5034684;28;20450;-77
2023/08/18 10:22:46;;;;;;;9.73;5.90;;;;;;;;;;5032367;28;20057;-76
2023/08/18 10:25:23;;;;;;;8.90;5.80;;;;;;;;;;5032790;28;20041;-76
2023/08/18 10:27:49;;;;;;;10.00;6.05;;;;;;;;;;5014334;28;20509;-75
2023/08/18 10:30:15;;;;;;;10.77;5.80;;;;;;;;;;5032473;28;20119;-75
2023/08/18 10:32:41;;;;;;;7.53;5.20;;;;;;;;;;5015259;28;20058;-77
2023/08/18 10:35:21;;;;;;;9.07;6.28;;;;;;;;;;5034352;28;20120;-77
2023/08/18 10:37:51;;;;;;;8.68;5.60;;;;;;;;;;5035589;28;20049;-78
2023/08/18 10:40:27;;;;;;;9.07;5.50;;;;;;;;;;5035642;28;20044;-78
2023/08/18 10:42:57;;;;;;;8.05;6.60;;;;;;;;;;5035229;28;20086;-78
2023/08/18 10:45:24;;;;;;;9.05;5.85;;;;;;;;;;5017939;28;20075;-77
2023/08/18 10:47:51;;;;;;;8.90;5.57;;;;;;;;;;5035777;28;20078;-77
2023/08/18 10:50:19;;;;;;;10.68;6.35;;;;;;;;;;5035355;28;20125;-78
2023/08/18 10:52:45;;;;;;;7.72;5.32;;;;;;;;;;5015852;28;20042;-77
2023/08/18 10:55:11;;;;;;;8.30;6.38;;;;;;;;;;4997624;28;20062;-79
2023/08/18 10:57:37;;;;;;;9.88;5.72;;;;;;;;;;4996662;28;20046;-79
2023/08/18 11:00:11;;;;;;;8.82;6.13;;;;;;;;;;4997977;28;20050;-79
2023/08/18 11:02:37;;;;;;;9.05;6.13;;;;;;;;;;5014950;28;20435;-78
2023/08/18 11:05:07;;;;;;;9.98;5.95;;;;;;;;;;5020997;28;20037;-86
2023/08/18 11:07:34;;;;;;;9.10;5.80;;;;;;;;;;5017383;28;20054;-86
2023/08/18 11:10:00;;;;;;;8.15;4.95;;;;;;;;;;5035809;28;20041;-87
2023/08/18 11:12:26;;;;;;;7.82;5.47;;;;;;;;;;5016743;28;20041;-87
2023/08/18 11:14:52;;;;;;;8.30;6.05;;;;;;;;;;5015159;28;20045;-87
2023/08/18 11:17:18;;;;;;;8.38;6.47;;;;;;;;;;5014448;28;20164;-86
2023/08/18 11:19:44;;;;;;;8.40;6.20;;;;;;;;;;5014860;28;20091;-88
2023/08/18 11:22:11;;;;;;;8.20;6.32;;;;;;;;;;5014538;28;20041;-87
2023/08/18 11:24:37;;;;;;;11.27;7.25;;;;;;;;;;5032693;28;20301;-87
2023/08/18 11:27:03;;;;;;;10.18;6.63;;;;;;;;;;5012846;28;20060;-84
2023/08/18 11:29:29;;;;;;;9.60;6.45;;;;;;;;;;5032767;28;20102;-85
2023/08/18 11:31:55;;;;;;;7.72;6.00;;;;;;;;;;5031853;28;20045;-87
2023/08/18 11:34:22;;;;;;;8.18;6.53;;;;;;;;;;5005742;28;20494;-85
2023/08/18 11:36:48;;;;;;;9.73;6.47;;;;;;;;;;5033364;28;20046;-85
2023/08/18 11:39:14;;;;;;;8.13;6.70;;;;;;;;;;5017016;28;20037;-84
2023/08/18 11:41:47;;;;;;;10.43;6.43;;;;;;;;;;5032616;28;20045;-78
2023/08/18 11:44:13;;;;;;;8.05;5.75;;;;;;;;;;5012319;28;20046;-78
2023/08/18 11:46:40;;;;;;;8.52;5.97;;;;;;;;;;5012787;28;20348;-78
2023/08/18 11:49:12;;;;;;;13.07;7.22;;;;;;;;;;4996551;28;20077;-78
2023/08/18 11:51:54;;;;;;;9.57;6.72;;;;;;;;;;5014550;28;20129;-79
2023/08/18 11:54:20;;;;;;;9.27;7.30;;;;;;;;;;4980599;28;20406;-78
2023/08/18 11:56:46;;;;;;;7.35;5.47;;;;;;;;;;4994792;28;20467;-78
2023/08/18 11:59:22;;;;;;;8.35;6.20;;;;;;;;;;4996010;28;20065;-78
2023/08/18 12:01:53;;;;;;;10.40;6.28;;;;;;;;;;4996171;28;20041;-78
2023/08/18 12:04:23;;;;;;;9.38;6.97;;;;;;;;;;4996279;28;20437;-78
2023/08/18 12:06:49;;;;;;;9.93;6.45;;;;;;;;;;4994323;28;20050;-79
2023/08/18 12:09:15;;;;;;;9.50;7.22;;;;;;;;;;4976760;28;20050;-78
2023/08/18 12:11:41;;;;;;;8.40;6.80;;;;;;;;;;4994192;28;20048;-78
2023/08/18 12:14:07;;;;;;;9.48;7.00;;;;;;;;;;4994059;28;20121;-78
2023/08/18 12:16:34;;;;;;;8.73;6.60;;;;;;;;;;4994303;28;20050;-78
2023/08/18 12:19:01;;;;;;;8.60;6.13;;;;;;;;;;4994294;28;20393;-78
2023/08/18 12:21:27;;;;;;;11.95;7.95;;;;;;;;;;4976760;28;20509;-78
2023/08/18 12:23:53;;;;;;;12.30;7.10;;;;;;;;;;4960004;28;20053;-77
2023/08/18 12:26:20;;;;;;;11.57;7.72;;;;;;;;;;5008195;28;20137;-77
2023/08/18 12:28:46;;;;;;;10.77;7.30;;;;;;;;;;4991157;28;20049;-77
2023/08/18 12:31:12;;;;;;;9.48;6.30;;;;;;;;;;5010678;28;20111;-76
2023/08/18 12:33:38;;;;;;;8.57;7.07;;;;;;;;;;4989659;28;20435;-77
2023/08/18 12:36:04;;;;;;;12.77;7.50;;;;;;;;;;5009816;28;20048;-77
2023/08/18 12:38:30;;;;;;;9.32;7.60;;;;;;;;;;5009974;28;20549;-76
2023/08/18 12:40:56;;;;;;;9.15;7.40;;;;;;;;;;5010124;28;20049;-76
2023/08/18 12:43:22;;;;;;;11.35;7.88;;;;;;;;;;4992470;28;20054;-77
2023/08/18 12:45:48;;;;;;;10.25;7.43;;;;;;;;;;5010138;28;20077;-77
2023/08/18 12:48:14;;;;;;;12.32;8.40;;;;;;;;;;5010516;28;20064;-77
2023/08/18 12:50:40;;;;;;;11.63;7.80;;;;;;;;;;5009754;28;20151;-77
2023/08/18 12:53:06;;;;;;;10.82;8.02;;;;;;;;;;4992346;28;20406;-77
2023/08/18 12:55:32;;;;;;;10.10;8.23;;;;;;;;;;4992647;28;20046;-77
2023/08/18 12:57:58;;;;;;;11.70;7.43;;;;;;;;;;5011133;28;20145;-77
2023/08/18 13:00:24;;;;;;;9.98;7.25;;;;;;;;;;5013089;28;20179;-77
2023/08/18 13:02:51;;;;;;;8.95;6.88;;;;;;;;;;5017374;28;20081;-77
2023/08/18 13:05:17;;;;;;;11.75;6.57;;;;;;;;;;5011294;28;20050;-77
2023/08/18 13:07:43;;;;;;;9.98;6.63;;;;;;;;;;5026857;28;20060;-77
2023/08/18 13:10:09;;;;;;;8.30;6.40;;;;;;;;;;5026778;28;20485;-79
2023/08/18 13:12:35;;;;;;;14.75;8.18;;;;;;;;;;5031400;28;20461;-77
2023/08/18 13:15:01;;;;;;;11.43;7.95;;;;;;;;;;5013985;28;20386;-77
2023/08/18 13:17:27;;;;;;;9.38;6.82;;;;;;;;;;5032479;28;20103;-78
2023/08/18 13:19:53;;;;;;;10.23;6.88;;;;;;;;;;5014075;28;20041;-78
2023/08/18 13:22:19;;;;;;;10.35;6.13;;;;;;;;;;5030810;28;20136;-76
2023/08/18 13:24:45;;;;;;;10.35;7.15;;;;;;;;;;5012320;28;20045;-78
2023/08/18 13:27:11;;;;;;;10.27;8.07;;;;;;;;;;5031652;28;20049;-77
2023/08/18 13:29:37;;;;;;;10.45;6.30;;;;;;;;;;5013732;28;20490;-77
2023/08/18 13:32:04;;;;;;;11.73;7.30;;;;;;;;;;5032453;28;20831;-77
2023/08/18 13:34:30;;;;;;;11.25;8.25;;;;;;;;;;5014040;28;20064;-77
2023/08/18 13:36:56;;;;;;;12.13;6.97;;;;;;;;;;5047498;28;20397;-77
2023/08/18 13:39:25;;;;;;;11.18;8.18;;;;;;;;;;5035354;28;20048;-77
2023/08/18 13:41:51;;;;;;;11.77;7.53;;;;;;;;;;5014061;28;20056;-77
2023/08/18 13:44:17;;;;;;;10.10;7.82;;;;;;;;;;5030864;28;20053;-77
2023/08/18 13:46:43;;;;;;;11.05;8.00;;;;;;;;;;5014476;28;20143;-77
2023/08/18 13:49:10;;;;;;;13.13;9.02;;;;;;;;;;5031765;28;20046;-77
2023/08/18 13:51:37;;;;;;;13.95;8.40;;;;;;;;;;5014588;28;20045;-77
2023/08/18 13:54:03;;;;;;;7.85;5.63;;;;;;;;;;5031511;28;20045;-78
2023/08/18 13:56:29;;;;;;;13.73;8.05;;;;;;;;;;5014434;28;20081;-77
2023/08/18 13:58:55;;;;;;;11.30;7.60;;;;;;;;;;5031957;28;20053;-77
2023/08/18 14:01:21;;;;;;;11.77;7.43;;;;;;;;;;5013990;28;20049;-77
2023/08/18 14:03:47;;;;;;;13.00;9.57;;;;;;;;;;5012753;28;20058;-78
2023/08/18 14:06:13;;;;;;;10.20;7.85;;;;;;;;;;5013860;28;20072;-78
2023/08/18 14:08:39;;;;;;;9.80;7.07;;;;;;;;;;5030390;28;20053;-77
2023/08/18 14:11:07;;;;;;;14.30;8.20;;;;;;;;;;5013722;28;20042;-78
2023/08/18 14:13:36;;;;;;;11.98;6.85;;;;;;;;;;5013777;28;20414;-78
2023/08/18 14:16:02;;;;;;;10.45;5.57;;;;;;;;;;5031890;28;20041;-78
2023/08/18 14:18:28;;;;;;;11.85;6.85;;;;;;;;;;5032072;28;20045;-79
2023/08/18 14:20:54;;;;;;;12.98;9.05;;;;;;;;;;5031023;28;20462;-78
2023/08/18 14:23:21;;;;;;;11.07;8.70;;;;;;;;;;5012706;28;20093;-76
2023/08/18 14:25:47;;;;;;;15.15;9.15;;;;;;;;;;5031881;28;20172;-77
2023/08/18 14:28:13;;;;;;;10.27;8.70;;;;;;;;;;4997428;28;20497;-77
2023/08/18 14:30:39;;;;;;;10.32;7.20;;;;;;;;;;5013759;28;20389;-78
2023/08/18 14:33:05;;;;;;;13.98;9.00;;;;;;;;;;5013627;28;20053;-78
2023/08/18 14:35:32;;;;;;;10.80;7.70;;;;;;;;;;5013449;28;20380;-78